SLI1053 MMOX-MMMX
Flight info
| Callsign | SLI1053 |
|---|---|
| Flight time | 0h 50m |
| Altitude | 34000 |
| Route | MAXIL4 MAXIL UJ33 KODEK UT157 LARLO LARLO4A |
| Aircraft | E190/M-SDE3GILORVW/S |
Departure
| Time | 2026-05-08 04:46 |
|---|---|
| Airport | Xoxocotlán International Airport (MMOX) |
Arrival
| Time | 2026-05-08 05:36 |
|---|---|
| Airport | Mexico City Benito Juárez International Airport (MMMX) |
| Time | Latitude | Longitude | Altitude | Speed | Heading |
|---|---|---|---|---|---|
| 2026-05-08 03:50 | 17.00017 | -96.72289 | 4993 ft | 0 kts | 105° |
| 2026-05-08 04:35 | 17.00018 | -96.72292 | 4993 ft | 3 kts | 105° |
| 2026-05-08 04:35 | 17.00027 | -96.72318 | 4993 ft | 4 kts | 121° |
| 2026-05-08 04:35 | 17.00044 | -96.72339 | 4993 ft | 4 kts | 155° |
| 2026-05-08 04:35 | 17.00062 | -96.72343 | 4993 ft | 1 kts | 195° |
| 2026-05-08 04:36 | 17.00066 | -96.72342 | 4993 ft | 0 kts | 195° |
| 2026-05-08 04:39 | 17.00065 | -96.72342 | 4993 ft | 1 kts | 195° |
| 2026-05-08 04:40 | 17.00057 | -96.72344 | 4993 ft | 2 kts | 195° |
| 2026-05-08 04:40 | 17.00040 | -96.72349 | 4993 ft | 3 kts | 195° |
| 2026-05-08 04:40 | 17.00014 | -96.72356 | 4993 ft | 5 kts | 195° |
| 2026-05-08 04:40 | 16.99980 | -96.72366 | 4993 ft | 6 kts | 196° |
| 2026-05-08 04:41 | 16.99936 | -96.72380 | 4993 ft | 7 kts | 196° |
| 2026-05-08 04:41 | 16.99884 | -96.72395 | 4993 ft | 8 kts | 195° |
| 2026-05-08 04:41 | 16.99824 | -96.72412 | 4993 ft | 10 kts | 195° |
| 2026-05-08 04:41 | 16.99761 | -96.72440 | 4992 ft | 11 kts | 208° |
| 2026-05-08 04:42 | 16.99703 | -96.72508 | 4989 ft | 14 kts | 233° |
| 2026-05-08 04:42 | 16.99637 | -96.72583 | 4991 ft | 14 kts | 225° |
| 2026-05-08 04:42 | 16.99570 | -96.72654 | 4991 ft | 14 kts | 227° |
| 2026-05-08 04:42 | 16.99489 | -96.72711 | 4992 ft | 14 kts | 192° |
| 2026-05-08 04:43 | 16.99402 | -96.72733 | 4995 ft | 12 kts | 196° |
| 2026-05-08 04:43 | 16.99318 | -96.72758 | 4996 ft | 14 kts | 195° |
| 2026-05-08 04:43 | 16.99205 | -96.72791 | 4995 ft | 21 kts | 196° |
| 2026-05-08 04:43 | 16.99037 | -96.72840 | 4993 ft | 25 kts | 196° |
| 2026-05-08 04:44 | 16.98955 | -96.72860 | 4992 ft | 17 kts | 183° |
| 2026-05-08 04:44 | 16.98848 | -96.72837 | 4991 ft | 10 kts | 171° |
| 2026-05-08 04:44 | 16.98817 | -96.72887 | 4990 ft | 11 kts | 303° |
| 2026-05-08 04:44 | 16.98875 | -96.72888 | 4990 ft | 8 kts | 16° |
| 2026-05-08 04:45 | 16.98997 | -96.72852 | 4992 ft | 46 kts | 15° |
| 2026-05-08 04:45 | 16.99545 | -96.72693 | 4991 ft | 117 kts | 16° |
| 2026-05-08 04:45 | 17.00546 | -96.72398 | 4996 ft | 178 kts | 17° |
| 2026-05-08 04:45 | 17.01858 | -96.72175 | 5519 ft | 201 kts | 360° |
| 2026-05-08 04:46 | 17.03202 | -96.72158 | 6769 ft | 186 kts | 6° |
| 2026-05-08 04:46 | 17.04544 | -96.72064 | 7452 ft | 210 kts | 4° |
| 2026-05-08 04:46 | 17.06087 | -96.72148 | 8086 ft | 234 kts | 346° |
| 2026-05-08 04:46 | 17.07542 | -96.72950 | 8997 ft | 239 kts | 317° |
| 2026-05-08 04:47 | 17.08728 | -96.74164 | 10105 ft | 238 kts | 310° |
| 2026-05-08 04:47 | 17.09612 | -96.75638 | 11013 ft | 246 kts | 295° |
| 2026-05-08 04:47 | 17.10314 | -96.77335 | 11658 ft | 261 kts | 291° |
| 2026-05-08 04:47 | 17.11033 | -96.79133 | 12375 ft | 273 kts | 293° |
| 2026-05-08 04:48 | 17.11769 | -96.80988 | 13168 ft | 280 kts | 291° |
| 2026-05-08 04:48 | 17.12469 | -96.82913 | 13953 ft | 286 kts | 291° |
| 2026-05-08 04:48 | 17.13406 | -96.84725 | 14727 ft | 289 kts | 308° |
| 2026-05-08 04:48 | 17.14866 | -96.86183 | 15489 ft | 293 kts | 322° |
| 2026-05-08 04:49 | 17.16522 | -96.87468 | 16190 ft | 298 kts | 325° |
| 2026-05-08 04:49 | 17.18240 | -96.88705 | 16901 ft | 301 kts | 326° |
| 2026-05-08 04:49 | 17.19975 | -96.89963 | 17570 ft | 304 kts | 325° |
| 2026-05-08 04:49 | 17.21703 | -96.91233 | 18201 ft | 309 kts | 325° |
| 2026-05-08 04:50 | 17.23471 | -96.92544 | 18795 ft | 313 kts | 324° |
| 2026-05-08 04:50 | 17.25257 | -96.93869 | 19393 ft | 316 kts | 324° |
| 2026-05-08 04:50 | 17.27063 | -96.95205 | 19973 ft | 320 kts | 324° |
| 2026-05-08 04:50 | 17.28894 | -96.96556 | 20510 ft | 323 kts | 324° |
| 2026-05-08 04:51 | 17.30743 | -96.97910 | 20972 ft | 326 kts | 324° |
| 2026-05-08 04:51 | 17.32613 | -96.99282 | 21161 ft | 336 kts | 324° |
| 2026-05-08 04:51 | 17.34569 | -97.00736 | 21195 ft | 351 kts | 324° |
| 2026-05-08 04:51 | 17.36599 | -97.02242 | 21223 ft | 364 kts | 324° |
| 2026-05-08 04:52 | 17.38701 | -97.03798 | 21253 ft | 375 kts | 324° |
| 2026-05-08 04:52 | 17.40831 | -97.05364 | 21283 ft | 384 kts | 324° |
| 2026-05-08 04:52 | 17.43033 | -97.06998 | 21386 ft | 390 kts | 324° |
| 2026-05-08 04:52 | 17.45251 | -97.08648 | 21665 ft | 390 kts | 324° |
| 2026-05-08 04:53 | 17.47468 | -97.10301 | 21952 ft | 390 kts | 324° |
| 2026-05-08 04:53 | 17.49658 | -97.11928 | 22262 ft | 389 kts | 324° |
| 2026-05-08 04:53 | 17.51875 | -97.13575 | 22498 ft | 390 kts | 324° |
| 2026-05-08 04:53 | 17.54098 | -97.15228 | 22709 ft | 393 kts | 324° |
| 2026-05-08 04:54 | 17.56329 | -97.16886 | 22910 ft | 394 kts | 324° |
| 2026-05-08 04:54 | 17.58571 | -97.18553 | 23108 ft | 396 kts | 324° |
| 2026-05-08 04:54 | 17.60742 | -97.20334 | 23300 ft | 396 kts | 318° |
| 2026-05-08 04:54 | 17.62753 | -97.22316 | 23461 ft | 398 kts | 314° |
| 2026-05-08 04:55 | 17.64698 | -97.24335 | 23641 ft | 399 kts | 314° |
| 2026-05-08 04:55 | 17.66681 | -97.26376 | 23946 ft | 396 kts | 314° |
| 2026-05-08 04:55 | 17.68675 | -97.28407 | 23967 ft | 401 kts | 315° |
| 2026-05-08 04:55 | 17.70674 | -97.30430 | 24101 ft | 403 kts | 315° |
| 2026-05-08 04:56 | 17.72698 | -97.32476 | 24268 ft | 403 kts | 315° |
| 2026-05-08 04:56 | 17.74723 | -97.34525 | 24460 ft | 404 kts | 315° |
| 2026-05-08 04:56 | 17.76745 | -97.36568 | 24624 ft | 404 kts | 315° |
| 2026-05-08 04:56 | 17.78773 | -97.38615 | 24775 ft | 404 kts | 315° |
| 2026-05-08 04:57 | 17.80778 | -97.40643 | 24898 ft | 405 kts | 315° |
| 2026-05-08 04:57 | 17.82806 | -97.42696 | 25033 ft | 405 kts | 315° |
| 2026-05-08 04:57 | 17.84837 | -97.44750 | 25142 ft | 406 kts | 315° |
| 2026-05-08 04:57 | 17.86876 | -97.46813 | 25244 ft | 406 kts | 315° |
| 2026-05-08 04:58 | 17.88912 | -97.48876 | 25343 ft | 407 kts | 315° |
| 2026-05-08 04:58 | 17.90954 | -97.50944 | 25464 ft | 407 kts | 315° |
| 2026-05-08 04:58 | 17.92996 | -97.53015 | 25572 ft | 407 kts | 315° |
| 2026-05-08 04:58 | 17.95036 | -97.55081 | 25675 ft | 407 kts | 315° |
| 2026-05-08 04:59 | 17.97051 | -97.57124 | 25762 ft | 408 kts | 315° |
| 2026-05-08 04:59 | 17.99102 | -97.59203 | 25863 ft | 408 kts | 315° |
| 2026-05-08 04:59 | 18.01150 | -97.61281 | 25936 ft | 408 kts | 315° |
| 2026-05-08 04:59 | 18.03195 | -97.63358 | 26024 ft | 408 kts | 314° |
| 2026-05-08 05:00 | 18.05211 | -97.65405 | 26104 ft | 408 kts | 315° |
| 2026-05-08 05:00 | 18.07263 | -97.67489 | 26124 ft | 409 kts | 314° |
| 2026-05-08 05:00 | 18.09317 | -97.69570 | 26175 ft | 409 kts | 314° |
| 2026-05-08 05:00 | 18.11370 | -97.71644 | 26192 ft | 408 kts | 315° |
| 2026-05-08 05:01 | 18.13396 | -97.73691 | 26189 ft | 409 kts | 314° |
| 2026-05-08 05:01 | 18.15433 | -97.75776 | 26199 ft | 409 kts | 315° |
| 2026-05-08 05:01 | 18.17484 | -97.77880 | 26246 ft | 410 kts | 315° |
| 2026-05-08 05:01 | 18.19537 | -97.79957 | 26256 ft | 409 kts | 315° |
| 2026-05-08 05:02 | 18.21580 | -97.82050 | 26242 ft | 410 kts | 314° |
| 2026-05-08 05:02 | 18.23636 | -97.84151 | 26292 ft | 411 kts | 314° |
| 2026-05-08 05:02 | 18.25652 | -97.86211 | 26361 ft | 409 kts | 314° |
| 2026-05-08 05:02 | 18.27695 | -97.88298 | 26403 ft | 409 kts | 315° |
| 2026-05-08 05:03 | 18.29762 | -97.90374 | 26416 ft | 410 kts | 315° |
| 2026-05-08 05:03 | 18.31821 | -97.92452 | 26477 ft | 409 kts | 314° |
| 2026-05-08 05:03 | 18.33870 | -97.94546 | 26531 ft | 409 kts | 314° |
| 2026-05-08 05:03 | 18.35917 | -97.96648 | 26558 ft | 410 kts | 314° |
| 2026-05-08 05:04 | 18.37943 | -97.98719 | 26616 ft | 410 kts | 314° |
| 2026-05-08 05:04 | 18.39991 | -98.00811 | 26657 ft | 411 kts | 314° |
| 2026-05-08 05:04 | 18.42036 | -98.02902 | 26675 ft | 409 kts | 314° |
| 2026-05-08 05:04 | 18.44080 | -98.05008 | 26723 ft | 411 kts | 314° |
| 2026-05-08 05:05 | 18.46137 | -98.07098 | 26801 ft | 411 kts | 315° |
| 2026-05-08 05:05 | 18.48218 | -98.09171 | 26886 ft | 410 kts | 315° |
| 2026-05-08 05:05 | 18.50243 | -98.11251 | 26927 ft | 411 kts | 314° |
| 2026-05-08 05:05 | 18.52293 | -98.13355 | 26961 ft | 412 kts | 314° |
| 2026-05-08 05:06 | 18.54350 | -98.15463 | 27019 ft | 411 kts | 314° |
| 2026-05-08 05:06 | 18.56410 | -98.17574 | 27065 ft | 411 kts | 313° |
| 2026-05-08 05:06 | 18.58454 | -98.19683 | 27142 ft | 411 kts | 314° |
| 2026-05-08 05:06 | 18.60513 | -98.21785 | 27197 ft | 411 kts | 314° |
| 2026-05-08 05:07 | 18.62544 | -98.23857 | 27231 ft | 411 kts | 314° |
| 2026-05-08 05:07 | 18.64605 | -98.25962 | 27272 ft | 412 kts | 314° |
| 2026-05-08 05:07 | 18.66665 | -98.28070 | 27330 ft | 413 kts | 314° |
| 2026-05-08 05:07 | 18.68725 | -98.30175 | 27395 ft | 411 kts | 314° |
| 2026-05-08 05:08 | 18.70778 | -98.32277 | 27430 ft | 411 kts | 314° |
| 2026-05-08 05:08 | 18.72835 | -98.34370 | 27460 ft | 411 kts | 314° |
| 2026-05-08 05:08 | 18.74867 | -98.36449 | 27461 ft | 412 kts | 314° |
| 2026-05-08 05:08 | 18.76924 | -98.38571 | 27443 ft | 413 kts | 314° |
| 2026-05-08 05:09 | 18.78952 | -98.40656 | 26822 ft | 398 kts | 314° |
| 2026-05-08 05:09 | 18.80912 | -98.42664 | 26102 ft | 385 kts | 314° |
| 2026-05-08 05:09 | 18.82786 | -98.44586 | 25419 ft | 375 kts | 313° |
| 2026-05-08 05:09 | 18.84657 | -98.46511 | 24709 ft | 377 kts | 313° |
| 2026-05-08 05:10 | 18.86656 | -98.48323 | 24023 ft | 382 kts | 325° |
| 2026-05-08 05:10 | 18.91335 | -98.50959 | 22603 ft | 377 kts | 316° |
| 2026-05-08 05:10 | 18.92877 | -98.53092 | 21918 ft | 366 kts | 295° |
| 2026-05-08 05:11 | 18.93533 | -98.55634 | 21218 ft | 352 kts | 272° |
| 2026-05-08 05:11 | 18.93573 | -98.58200 | 20511 ft | 348 kts | 266° |
| 2026-05-08 05:11 | 18.93564 | -98.60751 | 19818 ft | 344 kts | 268° |
| 2026-05-08 05:11 | 18.93669 | -98.63264 | 19111 ft | 342 kts | 272° |
| 2026-05-08 05:12 | 18.93982 | -98.65744 | 18518 ft | 336 kts | 278° |
| 2026-05-08 05:12 | 18.94518 | -98.68011 | 19268 ft | 311 kts | 285° |
| 2026-05-08 05:12 | 18.95224 | -98.69953 | 21107 ft | 257 kts | 288° |
| 2026-05-08 05:12 | 18.95880 | -98.71566 | 22440 ft | 224 kts | 292° |
| 2026-05-08 05:13 | 18.96644 | -98.72960 | 22927 ft | 226 kts | 299° |
| 2026-05-08 05:13 | 18.97804 | -98.74415 | 22004 ft | 292 kts | 319° |
| 2026-05-08 05:13 | 18.99650 | -98.75587 | 21375 ft | 329 kts | 336° |
| 2026-05-08 05:13 | 19.01962 | -98.76133 | 20686 ft | 351 kts | 357° |
| 2026-05-08 05:14 | 19.04331 | -98.75806 | 20576 ft | 333 kts | 13° |
| 2026-05-08 05:14 | 19.06510 | -98.74877 | 20068 ft | 345 kts | 33° |
| 2026-05-08 05:14 | 19.08322 | -98.73235 | 19612 ft | 350 kts | 47° |
| 2026-05-08 05:14 | 19.10008 | -98.71380 | 19171 ft | 348 kts | 48° |
| 2026-05-08 05:15 | 19.11684 | -98.69538 | 18688 ft | 348 kts | 47° |
| 2026-05-08 05:15 | 19.13379 | -98.67712 | 18252 ft | 344 kts | 46° |
| 2026-05-08 05:15 | 19.15087 | -98.65969 | 17618 ft | 343 kts | 44° |
| 2026-05-08 05:15 | 19.16791 | -98.64287 | 17702 ft | 327 kts | 43° |
| 2026-05-08 05:16 | 19.18510 | -98.62755 | 18102 ft | 334 kts | 40° |
| 2026-05-08 05:16 | 19.20333 | -98.61155 | 17867 ft | 338 kts | 42° |
| 2026-05-08 05:16 | 19.22105 | -98.59508 | 17907 ft | 340 kts | 42° |
| 2026-05-08 05:16 | 19.23900 | -98.57855 | 17910 ft | 341 kts | 42° |
| 2026-05-08 05:17 | 19.25677 | -98.56236 | 17904 ft | 341 kts | 42° |
| 2026-05-08 05:17 | 19.27471 | -98.54581 | 17904 ft | 342 kts | 42° |
| 2026-05-08 05:17 | 19.29265 | -98.52922 | 17915 ft | 343 kts | 42° |
| 2026-05-08 05:17 | 19.31065 | -98.51267 | 17906 ft | 342 kts | 42° |
| 2026-05-08 05:18 | 19.32858 | -98.49616 | 17908 ft | 342 kts | 42° |
| 2026-05-08 05:18 | 19.34655 | -98.47961 | 17911 ft | 342 kts | 42° |
| 2026-05-08 05:18 | 19.36446 | -98.46308 | 17906 ft | 342 kts | 42° |
| 2026-05-08 05:18 | 19.38243 | -98.44654 | 17909 ft | 342 kts | 42° |
| 2026-05-08 05:19 | 19.40038 | -98.43003 | 17891 ft | 342 kts | 42° |
| 2026-05-08 05:19 | 19.41834 | -98.41351 | 17904 ft | 342 kts | 41° |
| 2026-05-08 05:19 | 19.43853 | -98.40036 | 17905 ft | 344 kts | 20° |
| 2026-05-08 05:19 | 19.46211 | -98.39777 | 17916 ft | 345 kts | 352° |
| 2026-05-08 05:20 | 19.48487 | -98.40510 | 17950 ft | 341 kts | 336° |
| 2026-05-08 05:20 | 19.50599 | -98.41587 | 17928 ft | 344 kts | 333° |
| 2026-05-08 05:20 | 19.52821 | -98.42510 | 17907 ft | 343 kts | 342° |
| 2026-05-08 05:20 | 19.55155 | -98.43142 | 17578 ft | 346 kts | 347° |
| 2026-05-08 05:21 | 19.57400 | -98.43599 | 17179 ft | 317 kts | 349° |
| 2026-05-08 05:21 | 19.59521 | -98.43963 | 16783 ft | 302 kts | 351° |
| 2026-05-08 05:21 | 19.61610 | -98.44304 | 16417 ft | 301 kts | 349° |
| 2026-05-08 05:21 | 19.63616 | -98.44806 | 16053 ft | 298 kts | 344° |
| 2026-05-08 05:22 | 19.65609 | -98.45397 | 15686 ft | 294 kts | 344° |
| 2026-05-08 05:22 | 19.67583 | -98.45968 | 15298 ft | 292 kts | 344° |
| 2026-05-08 05:22 | 19.69521 | -98.46510 | 14934 ft | 289 kts | 345° |
| 2026-05-08 05:22 | 19.71441 | -98.47036 | 14907 ft | 280 kts | 345° |
| 2026-05-08 05:23 | 19.73287 | -98.47591 | 15632 ft | 270 kts | 338° |
| 2026-05-08 05:23 | 19.74992 | -98.48551 | 15603 ft | 290 kts | 325° |
| 2026-05-08 05:23 | 19.76623 | -98.49866 | 15108 ft | 293 kts | 320° |
| 2026-05-08 05:23 | 19.78181 | -98.51207 | 14684 ft | 288 kts | 320° |
| 2026-05-08 05:24 | 19.79727 | -98.52505 | 14825 ft | 288 kts | 321° |
| 2026-05-08 05:24 | 19.81290 | -98.53793 | 14802 ft | 286 kts | 321° |
| 2026-05-08 05:24 | 19.82885 | -98.55093 | 14819 ft | 287 kts | 321° |
| 2026-05-08 05:24 | 19.84403 | -98.56444 | 14659 ft | 291 kts | 312° |
| 2026-05-08 05:25 | 19.85355 | -98.58324 | 14116 ft | 288 kts | 281° |
| 2026-05-08 05:25 | 19.85264 | -98.60372 | 13633 ft | 281 kts | 250° |
| 2026-05-08 05:25 | 19.84219 | -98.62096 | 13131 ft | 280 kts | 220° |
| 2026-05-08 05:25 | 19.82596 | -98.63242 | 12651 ft | 280 kts | 209° |
| 2026-05-08 05:26 | 19.80901 | -98.64274 | 12194 ft | 280 kts | 209° |
| 2026-05-08 05:26 | 19.79227 | -98.65307 | 11948 ft | 271 kts | 210° |
| 2026-05-08 05:26 | 19.77747 | -98.66324 | 12424 ft | 236 kts | 215° |
| 2026-05-08 05:26 | 19.76453 | -98.67345 | 13069 ft | 236 kts | 216° |
| 2026-05-08 05:27 | 19.75088 | -98.68346 | 13013 ft | 240 kts | 212° |
| 2026-05-08 05:27 | 19.73697 | -98.69278 | 12853 ft | 235 kts | 211° |
| 2026-05-08 05:27 | 19.72288 | -98.70194 | 12447 ft | 241 kts | 210° |
| 2026-05-08 05:27 | 19.70842 | -98.71129 | 12099 ft | 243 kts | 211° |
| 2026-05-08 05:28 | 19.69410 | -98.72075 | 11972 ft | 235 kts | 212° |
| 2026-05-08 05:28 | 19.68082 | -98.73003 | 12177 ft | 227 kts | 213° |
| 2026-05-08 05:28 | 19.66763 | -98.73942 | 12131 ft | 226 kts | 213° |
| 2026-05-08 05:28 | 19.65465 | -98.74841 | 12038 ft | 220 kts | 212° |
| 2026-05-08 05:29 | 19.64143 | -98.75746 | 12016 ft | 238 kts | 212° |
| 2026-05-08 05:29 | 19.62737 | -98.76719 | 11737 ft | 244 kts | 213° |
| 2026-05-08 05:29 | 19.61283 | -98.77716 | 11286 ft | 250 kts | 212° |
| 2026-05-08 05:29 | 19.59835 | -98.78723 | 10867 ft | 250 kts | 213° |
| 2026-05-08 05:30 | 19.58472 | -98.79841 | 10447 ft | 248 kts | 231° |
| 2026-05-08 05:30 | 19.57542 | -98.81350 | 10036 ft | 239 kts | 242° |
| 2026-05-08 05:30 | 19.56839 | -98.82884 | 9918 ft | 218 kts | 244° |
| 2026-05-08 05:30 | 19.56189 | -98.84332 | 9997 ft | 223 kts | 243° |
| 2026-05-08 05:31 | 19.55488 | -98.85760 | 9994 ft | 218 kts | 241° |
| 2026-05-08 05:31 | 19.54735 | -98.87156 | 10031 ft | 216 kts | 238° |
| 2026-05-08 05:31 | 19.53943 | -98.88537 | 9626 ft | 223 kts | 238° |
| 2026-05-08 05:31 | 19.53183 | -98.89871 | 9805 ft | 193 kts | 238° |
| 2026-05-08 05:32 | 19.52493 | -98.91092 | 9485 ft | 207 kts | 238° |
| 2026-05-08 05:32 | 19.51723 | -98.92427 | 9025 ft | 215 kts | 238° |
| 2026-05-08 05:32 | 19.51225 | -98.93308 | 9050 ft | 201 kts | 239° |
| 2026-05-08 05:32 | 19.50279 | -98.95022 | 9098 ft | 204 kts | 239° |
| 2026-05-08 05:33 | 19.49552 | -98.96334 | 9149 ft | 203 kts | 238° |
| 2026-05-08 05:33 | 19.48870 | -98.97543 | 9154 ft | 182 kts | 238° |
| 2026-05-08 05:33 | 19.48440 | -98.98307 | 8873 ft | 180 kts | 238° |
| 2026-05-08 05:33 | 19.47845 | -98.99390 | 8809 ft | 161 kts | 238° |
| 2026-05-08 05:34 | 19.47268 | -99.00407 | 8791 ft | 161 kts | 236° |
| 2026-05-08 05:34 | 19.46695 | -99.01401 | 9083 ft | 158 kts | 237° |
| 2026-05-08 05:34 | 19.46073 | -99.02390 | 9354 ft | 161 kts | 234° |
| 2026-05-08 05:34 | 19.45442 | -99.03406 | 8866 ft | 172 kts | 238° |
| 2026-05-08 05:35 | 19.44862 | -99.04572 | 8169 ft | 183 kts | 243° |
| 2026-05-08 05:35 | 19.44245 | -99.05819 | 7364 ft | 195 kts | 240° |
| 2026-05-08 05:35 | 19.43613 | -99.06955 | 7301 ft | 163 kts | 240° |
| 2026-05-08 05:35 | 19.43117 | -99.07838 | 7303 ft | 114 kts | 237° |
| 2026-05-08 05:36 | 19.42779 | -99.08420 | 7302 ft | 72 kts | 242° |
| 2026-05-08 05:36 | 19.42642 | -99.08691 | 7302 ft | 25 kts | 238° |
| 2026-05-08 05:36 | 19.42566 | -99.08742 | 7301 ft | 11 kts | 133° |
| 2026-05-08 05:36 | 19.42536 | -99.08671 | 7301 ft | 10 kts | 113° |
| 2026-05-08 05:37 | 19.42511 | -99.08598 | 7301 ft | 10 kts | 106° |
| 2026-05-08 05:37 | 19.42492 | -99.08524 | 7301 ft | 11 kts | 106° |
| 2026-05-08 05:37 | 19.42466 | -99.08450 | 7301 ft | 11 kts | 112° |
| 2026-05-08 05:37 | 19.42436 | -99.08377 | 7301 ft | 11 kts | 114° |
| 2026-05-08 05:38 | 19.42405 | -99.08300 | 7301 ft | 11 kts | 112° |
| 2026-05-08 05:38 | 19.42364 | -99.08228 | 7301 ft | 12 kts | 139° |
| 2026-05-08 05:38 | 19.42290 | -99.08203 | 7301 ft | 12 kts | 180° |
| 2026-05-08 05:38 | 19.42228 | -99.08202 | 7301 ft | 5 kts | 163° |
| 2026-05-08 05:39 | 19.42219 | -99.08196 | 7301 ft | 0 kts | 149° |
| 2026-05-08 05:39 | 19.42213 | -99.08192 | 7301 ft | 3 kts | 143° |
| 2026-05-08 05:39 | 19.42195 | -99.08165 | 7301 ft | 3 kts | 123° |
| 2026-05-08 05:39 | 19.42182 | -99.08153 | 7301 ft | 2 kts | 158° |
| 2026-05-08 05:40 | 19.42168 | -99.08157 | 7301 ft | 3 kts | 200° |
| 2026-05-08 05:40 | 19.42151 | -99.08166 | 7301 ft | 2 kts | 207° |
| 2026-05-08 05:40 | 19.42149 | -99.08167 | 7301 ft | 0 kts | 208° |